RJSK(METAR)
02/19 09:00
METAR RJSK 190000Z 11004KT 9999 FEW025 SCT110 BKN130 01/M02 Q1024
RMK 1SC025 3AC110 7AC130 A3026=
戻る
トップページへ戻る
IMOC Co,.Ltd.